TWG42 EDCG-EDDH
Flight info
| Callsign | TWG42 |
|---|---|
| Flight time | 0h 54m |
| Altitude | 6500 |
| Route | DCT |
| Aircraft | C208/L-DFGRVY/S |
Departure
| Time | 2026-05-04 10:25 |
|---|---|
| Airport | Rügen Airport (EDCG) |
Arrival
| Time | 2026-05-04 11:19 |
|---|---|
| Airport | Hamburg Helmut Schmidt Airport (EDDH) |
| Time | Latitude | Longitude | Altitude | Speed | Heading |
|---|---|---|---|---|---|
| 2026-05-04 10:16 | 54.38428 | 13.32553 | 66 ft | 0 kts | 88° |
| 2026-05-04 10:21 | 54.38427 | 13.32568 | 66 ft | 5 kts | 113° |
| 2026-05-04 10:21 | 54.38402 | 13.32639 | 65 ft | 11 kts | 84° |
| 2026-05-04 10:21 | 54.38410 | 13.32837 | 66 ft | 22 kts | 84° |
| 2026-05-04 10:21 | 54.38423 | 13.33136 | 66 ft | 26 kts | 86° |
| 2026-05-04 10:22 | 54.38382 | 13.33261 | 66 ft | 5 kts | 253° |
| 2026-05-04 10:22 | 54.38374 | 13.33116 | 68 ft | 28 kts | 265° |
| 2026-05-04 10:22 | 54.38346 | 13.32520 | 76 ft | 68 kts | 264° |
| 2026-05-04 10:23 | 54.38275 | 13.31678 | 282 ft | 72 kts | 264° |
| 2026-05-04 10:23 | 54.38197 | 13.30789 | 457 ft | 83 kts | 264° |
| 2026-05-04 10:25 | 54.37539 | 13.21980 | 1867 ft | 118 kts | 264° |
| 2026-05-04 10:25 | 54.37447 | 13.20583 | 2074 ft | 117 kts | 264° |
| 2026-05-04 10:25 | 54.37344 | 13.19200 | 2281 ft | 117 kts | 263° |
| 2026-05-04 10:25 | 54.37373 | 13.17822 | 2485 ft | 117 kts | 283° |
| 2026-05-04 10:26 | 54.37641 | 13.16505 | 2686 ft | 116 kts | 285° |
| 2026-05-04 10:26 | 54.37908 | 13.15202 | 2890 ft | 116 kts | 285° |
| 2026-05-04 10:26 | 54.38173 | 13.13896 | 3096 ft | 116 kts | 286° |
| 2026-05-04 10:26 | 54.38430 | 13.12606 | 3297 ft | 115 kts | 285° |
| 2026-05-04 10:27 | 54.38685 | 13.11303 | 3492 ft | 115 kts | 285° |
| 2026-05-04 10:27 | 54.38940 | 13.10015 | 3691 ft | 113 kts | 285° |
| 2026-05-04 10:27 | 54.39193 | 13.08735 | 3893 ft | 113 kts | 285° |
| 2026-05-04 10:27 | 54.39441 | 13.07456 | 4096 ft | 113 kts | 285° |
| 2026-05-04 10:28 | 54.39688 | 13.06175 | 4279 ft | 114 kts | 285° |
| 2026-05-04 10:28 | 54.39940 | 13.04883 | 4454 ft | 114 kts | 285° |
| 2026-05-04 10:28 | 54.40196 | 13.03587 | 4643 ft | 115 kts | 286° |
| 2026-05-04 10:28 | 54.40451 | 13.02282 | 4822 ft | 115 kts | 285° |
| 2026-05-04 10:29 | 54.40705 | 13.00973 | 5004 ft | 116 kts | 285° |
| 2026-05-04 10:29 | 54.40964 | 12.99661 | 5172 ft | 116 kts | 285° |
| 2026-05-04 10:29 | 54.41228 | 12.98356 | 5348 ft | 116 kts | 285° |
| 2026-05-04 10:29 | 54.41454 | 12.97040 | 5525 ft | 114 kts | 275° |
| 2026-05-04 10:30 | 54.41487 | 12.95677 | 5705 ft | 115 kts | 272° |
| 2026-05-04 10:30 | 54.41540 | 12.94309 | 5883 ft | 115 kts | 272° |
| 2026-05-04 10:30 | 54.41597 | 12.92942 | 6062 ft | 115 kts | 272° |
| 2026-05-04 10:30 | 54.41653 | 12.91578 | 6256 ft | 114 kts | 272° |
| 2026-05-04 10:31 | 54.41709 | 12.90212 | 6433 ft | 115 kts | 272° |
| 2026-05-04 10:31 | 54.41769 | 12.88796 | 6472 ft | 124 kts | 273° |
| 2026-05-04 10:32 | 54.42163 | 12.78972 | 6473 ft | 144 kts | 273° |
| 2026-05-04 10:33 | 54.42231 | 12.77250 | 6477 ft | 145 kts | 273° |
| 2026-05-04 10:33 | 54.42299 | 12.75528 | 6473 ft | 144 kts | 273° |
| 2026-05-04 10:33 | 54.42367 | 12.73810 | 6475 ft | 144 kts | 273° |
| 2026-05-04 10:33 | 54.42436 | 12.72088 | 6476 ft | 144 kts | 273° |
| 2026-05-04 10:34 | 54.42501 | 12.70368 | 6470 ft | 144 kts | 271° |
| 2026-05-04 10:34 | 54.42183 | 12.68759 | 6469 ft | 147 kts | 239° |
| 2026-05-04 10:34 | 54.41664 | 12.67252 | 6470 ft | 146 kts | 247° |
| 2026-05-04 10:34 | 54.41242 | 12.65668 | 6469 ft | 146 kts | 249° |
| 2026-05-04 10:35 | 54.40838 | 12.64067 | 6473 ft | 146 kts | 250° |
| 2026-05-04 10:35 | 54.40443 | 12.62459 | 6475 ft | 146 kts | 250° |
| 2026-05-04 10:35 | 54.40049 | 12.60848 | 6473 ft | 146 kts | 250° |
| 2026-05-04 10:35 | 54.39654 | 12.59238 | 6473 ft | 147 kts | 250° |
| 2026-05-04 10:36 | 54.39259 | 12.57626 | 6474 ft | 147 kts | 250° |
| 2026-05-04 10:36 | 54.38863 | 12.56013 | 6477 ft | 147 kts | 250° |
| 2026-05-04 10:36 | 54.38465 | 12.54398 | 6473 ft | 147 kts | 250° |
| 2026-05-04 10:36 | 54.38069 | 12.52785 | 6477 ft | 146 kts | 250° |
| 2026-05-04 10:37 | 54.37672 | 12.51177 | 6475 ft | 147 kts | 250° |
| 2026-05-04 10:37 | 54.37275 | 12.49565 | 6475 ft | 146 kts | 250° |
| 2026-05-04 10:37 | 54.36885 | 12.47981 | 6475 ft | 146 kts | 250° |
| 2026-05-04 10:37 | 54.36488 | 12.46377 | 6474 ft | 146 kts | 250° |
| 2026-05-04 10:39 | 54.34100 | 12.36722 | 6461 ft | 147 kts | 249° |
| 2026-05-04 10:39 | 54.33700 | 12.35113 | 6459 ft | 147 kts | 249° |
| 2026-05-04 10:39 | 54.33301 | 12.33507 | 6473 ft | 147 kts | 249° |
| 2026-05-04 10:40 | 54.32901 | 12.31896 | 6470 ft | 148 kts | 249° |
| 2026-05-04 10:40 | 54.32497 | 12.30273 | 6475 ft | 148 kts | 249° |
| 2026-05-04 10:40 | 54.32092 | 12.28649 | 6474 ft | 148 kts | 249° |
| 2026-05-04 10:40 | 54.31693 | 12.27044 | 6472 ft | 148 kts | 249° |
| 2026-05-04 10:41 | 54.31288 | 12.25422 | 6472 ft | 148 kts | 249° |
| 2026-05-04 10:41 | 54.30884 | 12.23799 | 6472 ft | 148 kts | 249° |
| 2026-05-04 10:41 | 54.30478 | 12.22172 | 6474 ft | 148 kts | 249° |
| 2026-05-04 10:41 | 54.30072 | 12.20546 | 6483 ft | 149 kts | 249° |
| 2026-05-04 10:42 | 54.29665 | 12.18917 | 6479 ft | 149 kts | 249° |
| 2026-05-04 10:42 | 54.29257 | 12.17285 | 6478 ft | 149 kts | 249° |
| 2026-05-04 10:42 | 54.28850 | 12.15661 | 6476 ft | 148 kts | 249° |
| 2026-05-04 10:42 | 54.28443 | 12.14037 | 6478 ft | 148 kts | 249° |
| 2026-05-04 10:43 | 54.28037 | 12.12413 | 6479 ft | 148 kts | 249° |
| 2026-05-04 10:44 | 54.25190 | 12.01095 | 6480 ft | 148 kts | 249° |
| 2026-05-04 10:45 | 54.24783 | 11.99475 | 6477 ft | 148 kts | 249° |
| 2026-05-04 10:45 | 54.24374 | 11.97857 | 6480 ft | 148 kts | 249° |
| 2026-05-04 10:45 | 54.23966 | 11.96240 | 6484 ft | 148 kts | 248° |
| 2026-05-04 10:45 | 54.23557 | 11.94625 | 6484 ft | 148 kts | 249° |
| 2026-05-04 10:46 | 54.23149 | 11.93011 | 6486 ft | 148 kts | 249° |
| 2026-05-04 10:46 | 54.22741 | 11.91396 | 6485 ft | 148 kts | 248° |
| 2026-05-04 10:46 | 54.22332 | 11.89781 | 6484 ft | 148 kts | 248° |
| 2026-05-04 10:46 | 54.21923 | 11.88166 | 6483 ft | 148 kts | 248° |
| 2026-05-04 10:47 | 54.21513 | 11.86553 | 6485 ft | 148 kts | 249° |
| 2026-05-04 10:47 | 54.21102 | 11.84933 | 6487 ft | 148 kts | 249° |
| 2026-05-04 10:47 | 54.20692 | 11.83316 | 6486 ft | 148 kts | 249° |
| 2026-05-04 10:47 | 54.20280 | 11.81697 | 6486 ft | 149 kts | 248° |
| 2026-05-04 10:49 | 54.17538 | 11.70939 | 6479 ft | 148 kts | 248° |
| 2026-05-04 10:49 | 54.17124 | 11.69322 | 6477 ft | 149 kts | 248° |
| 2026-05-04 10:50 | 54.16710 | 11.67702 | 6475 ft | 149 kts | 248° |
| 2026-05-04 10:51 | 54.13795 | 11.56337 | 6477 ft | 149 kts | 248° |
| 2026-05-04 10:52 | 54.13378 | 11.54716 | 6479 ft | 149 kts | 248° |
| 2026-05-04 10:52 | 54.12960 | 11.53093 | 6477 ft | 149 kts | 248° |
| 2026-05-04 10:52 | 54.12543 | 11.51472 | 6478 ft | 149 kts | 248° |
| 2026-05-04 10:54 | 54.09620 | 11.40163 | 6476 ft | 149 kts | 248° |
| 2026-05-04 10:54 | 54.09200 | 11.38540 | 6480 ft | 149 kts | 248° |
| 2026-05-04 10:56 | 54.06269 | 11.27263 | 6479 ft | 149 kts | 248° |
| 2026-05-04 10:56 | 54.05849 | 11.25652 | 6477 ft | 149 kts | 248° |
| 2026-05-04 10:56 | 54.05428 | 11.24038 | 6480 ft | 149 kts | 248° |
| 2026-05-04 10:57 | 54.05013 | 11.22424 | 6477 ft | 149 kts | 250° |
| 2026-05-04 10:57 | 54.04668 | 11.20770 | 6479 ft | 148 kts | 252° |
| 2026-05-04 10:57 | 54.04334 | 11.19112 | 6479 ft | 148 kts | 252° |
| 2026-05-04 10:57 | 54.03999 | 11.17454 | 6475 ft | 148 kts | 252° |
| 2026-05-04 10:58 | 54.03664 | 11.15793 | 6477 ft | 149 kts | 252° |
| 2026-05-04 10:58 | 54.03329 | 11.14129 | 6481 ft | 149 kts | 252° |
| 2026-05-04 10:58 | 54.02993 | 11.12460 | 6482 ft | 149 kts | 252° |
| 2026-05-04 10:58 | 54.02658 | 11.10793 | 6480 ft | 150 kts | 252° |
| 2026-05-04 10:59 | 54.02320 | 11.09112 | 6482 ft | 150 kts | 252° |
| 2026-05-04 10:59 | 54.01981 | 11.07424 | 6480 ft | 151 kts | 252° |
| 2026-05-04 10:59 | 54.01645 | 11.05733 | 6486 ft | 151 kts | 252° |
| 2026-05-04 10:59 | 54.01306 | 11.04036 | 6482 ft | 151 kts | 252° |
| 2026-05-04 11:00 | 54.00963 | 11.02309 | 6373 ft | 157 kts | 252° |
| 2026-05-04 11:01 | 53.98088 | 10.89898 | 5483 ft | 166 kts | 232° |
| 2026-05-04 11:02 | 53.97331 | 10.88419 | 5358 ft | 166 kts | 233° |
| 2026-05-04 11:02 | 53.96595 | 10.86909 | 5234 ft | 166 kts | 234° |
| 2026-05-04 11:05 | 53.87701 | 10.65158 | 4506 ft | 155 kts | 238° |
| 2026-05-04 11:06 | 53.87087 | 10.63657 | 4507 ft | 155 kts | 238° |
| 2026-05-04 11:06 | 53.86474 | 10.62159 | 4505 ft | 154 kts | 238° |
| 2026-05-04 11:06 | 53.85805 | 10.60733 | 4506 ft | 156 kts | 228° |
| 2026-05-04 11:06 | 53.85035 | 10.59436 | 4507 ft | 156 kts | 229° |
| 2026-05-04 11:08 | 53.81295 | 10.47784 | 3642 ft | 167 kts | 244° |
| 2026-05-04 11:10 | 53.75928 | 10.37224 | 2745 ft | 170 kts | 229° |
| 2026-05-04 11:12 | 53.68424 | 10.31001 | 1840 ft | 173 kts | 205° |
| 2026-05-04 11:12 | 53.67325 | 10.30223 | 1716 ft | 170 kts | 211° |
| 2026-05-04 11:12 | 53.66315 | 10.29178 | 1586 ft | 171 kts | 217° |
| 2026-05-04 11:12 | 53.65317 | 10.28124 | 1502 ft | 166 kts | 216° |
| 2026-05-04 11:13 | 53.64382 | 10.27073 | 1497 ft | 157 kts | 222° |
| 2026-05-04 11:13 | 53.63444 | 10.26164 | 1491 ft | 154 kts | 209° |
| 2026-05-04 11:13 | 53.62558 | 10.25203 | 1485 ft | 150 kts | 221° |
| 2026-05-04 11:13 | 53.61765 | 10.24111 | 1496 ft | 149 kts | 224° |
| 2026-05-04 11:14 | 53.61496 | 10.23730 | 1486 ft | 150 kts | 223° |
| 2026-05-04 11:16 | 53.58066 | 10.12252 | 1506 ft | 134 kts | 298° |
| 2026-05-04 11:16 | 53.58543 | 10.10895 | 1506 ft | 135 kts | 298° |
| 2026-05-04 11:16 | 53.59026 | 10.09560 | 1515 ft | 134 kts | 298° |
| 2026-05-04 11:17 | 53.59499 | 10.08223 | 1501 ft | 135 kts | 298° |
| 2026-05-04 11:17 | 53.59987 | 10.06884 | 1500 ft | 133 kts | 299° |
| 2026-05-04 11:19 | 53.63636 | 10.00066 | 208 ft | 76 kts | 240° |
| 2026-05-04 11:19 | 53.63302 | 9.99372 | 47 ft | 71 kts | 236° |
| 2026-05-04 11:19 | 53.63031 | 9.98826 | 44 ft | 50 kts | 232° |
| 2026-05-04 11:19 | 53.62864 | 9.98535 | 43 ft | 28 kts | 209° |
| 2026-05-04 11:20 | 53.62697 | 9.98474 | 45 ft | 18 kts | 175° |
| 2026-05-04 11:20 | 53.62559 | 9.98578 | 45 ft | 25 kts | 154° |
| 2026-05-04 11:20 | 53.62528 | 9.98797 | 45 ft | 24 kts | 80° |
| 2026-05-04 11:20 | 53.62570 | 9.99107 | 45 ft | 23 kts | 85° |
| 2026-05-04 11:22 | 53.62818 | 9.99975 | 46 ft | 14 kts | 39° |
| 2026-05-04 11:22 | 53.62781 | 10.00123 | 47 ft | 21 kts | 150° |
| 2026-05-04 11:23 | 53.62647 | 10.00241 | 47 ft | 22 kts | 154° |
| 2026-05-04 11:23 | 53.62608 | 10.00385 | 47 ft | 13 kts | 92° |
| 2026-05-04 11:24 | 53.62509 | 10.00410 | 47 ft | 0 kts | 242° |